Barbarossa — IBJD — position and weather

sailwx.info

Track history (hours):
 
Tides and Currents Weather Stations Pressure Air Temp Water Temp Dewpoint Dewpoint Depression Visibility Wind Speed Wind Dir Waves Ship Positions

Barbarossa

Last reported at 2019-Aug-22 15:58 UTC. Time now 2019-Aug-24 06:57 UTC.
Position N 37°13' E 024°49'.

Length 294 m; draft 8.1 m.

Type: Ship. MMSI: 247282900.

Date/timePositionNaut miles runAvg speedWind from/ knotsBaromVisibWave heightAir tempDewpointWater temp
2019-Aug-22 15:58N 37°13' E 024°49'918.8
2019-Aug-22 15:30N 37°19' E 024°57'918.9
2019-Aug-22 15:01N 37°26' E 025°05'816.9
2019-Aug-22 14:30N 37°28' E 025°15'3 5.8
2019-Aug-22 13:58N 37°28' E 025°19'0 0.0
2019-Aug-22 13:28N 37°28' E 025°19'0 0.0
2019-Aug-22 12:58N 37°28' E 025°19'0 0.0
2019-Aug-22 12:28N 37°28' E 025°19'0 0.0
2019-Aug-22 11:55N 37°28' E 025°19'0 0.0
2019-Aug-22 11:25N 37°28' E 025°19'0 0.0
2019-Aug-22 10:55N 37°28' E 025°19'0 0.0
2019-Aug-22 10:28N 37°28' E 025°19'0 0.0
2019-Aug-22 09:58N 37°28' E 025°19'0 0.0
2019-Aug-22 09:28N 37°28' E 025°19'0 0.0
2019-Aug-22 08:58N 37°28' E 025°19'0 0.0
2019-Aug-22 08:28N 37°28' E 025°19'0 0.0
2019-Aug-22 07:58N 37°28' E 025°19'0 0.0
2019-Aug-22 07:28N 37°28' E 025°19'0 0.0
2019-Aug-22 06:55N 37°28' E 025°19'0 0.0
2019-Aug-22 06:28N 37°28' E 025°19'0 0.0
2019-Aug-22 05:58N 37°28' E 025°19'0 0.0
2019-Aug-22 05:28N 37°28' E 025°19'0 0.0
2019-Aug-22 04:58N 37°28' E 025°19'0 0.0
2019-Aug-22 04:28N 37°28' E 025°19'0 0.0
2019-Aug-22 03:58N 37°28' E 025°19'0 0.1
2019-Aug-22 03:30N 37°28' E 025°19'1 1.9
2019-Aug-22 03:00N 37°27' E 025°18'4 9.0
2019-Aug-22 02:30N 37°28' E 025°12'510.2
2019-Aug-22 02:00N 37°24' E 025°07'611.1
2019-Aug-22 01:26N 37°18' E 025°05'512.7
2019-Aug-22 01:00N 37°16' E 024°58'612.7
2019-Aug-22 00:30N 37°14' E 024°51'  
2019-Aug-19 17:40N 41°08' E 016°52'14510.4
2019-Aug-19 03:43N 43°06' E 014°58'421.7
2019-Aug-19 03:31N 43°09' E 014°54'1121.6
2019-Aug-19 03:01N 43°16' E 014°43'1121.4
2019-Aug-19 02:31N 43°23' E 014°32'1121.3
2019-Aug-19 02:01N 43°30' E 014°20'1121.5
2019-Aug-19 01:31N 43°38' E 014°11'1121.6
2019-Aug-19 01:01N 43°46' E 014°01'1121.4
2019-Aug-19 00:31N 43°53' E 013°49'1121.2
2019-Aug-19 00:01N 43°59' E 013°37'1121.5
2019-Aug-18 23:31N 44°05' E 013°25'1121.4
2019-Aug-18 23:01N 44°11' E 013°13'1121.3
2019-Aug-18 22:31N 44°21' E 013°08'1121.1
2019-Aug-18 22:01N 44°31' E 013°04'1121.1
2019-Aug-18 21:30N 44°41' E 012°59'1121.1
2019-Aug-18 21:00N 44°51' E 012°53'1121.1
2019-Aug-18 20:30N 45°00' E 012°47'1020.4
2019-Aug-18 20:00N 45°08' E 012°38'917.4
2019-Aug-18 19:30N 45°15' E 012°30'815.2
2019-Aug-18 19:00N 45°23' E 012°29'4 9.0
2019-Aug-18 18:30N 45°26' E 012°24'2 4.3
2019-Aug-18 18:01N 45°26' E 012°21'2 4.1
2019-Aug-18 17:30N 45°26' E 012°18'0 0.5
2019-Aug-18 17:00N 45°26' E 012°19'0 0.0
2019-Aug-18 16:30N 45°26' E 012°19'0 0.0
2019-Aug-18 15:59N 45°26' E 012°19'0 0.0
2019-Aug-18 15:29N 45°26' E 012°19'0 0.0
2019-Aug-18 14:58N 45°26' E 012°19'0 0.0
2019-Aug-18 14:28N 45°26' E 012°19'0 0.0
2019-Aug-18 13:58N 45°26' E 012°19'0 0.0
2019-Aug-18 13:28N 45°26' E 012°19'0 0.0
2019-Aug-18 12:58N 45°26' E 012°19'0 0.0
2019-Aug-18 12:28N 45°26' E 012°19'0 0.0
2019-Aug-18 11:55N 45°26' E 012°19'0 0.0
2019-Aug-18 11:28N 45°26' E 012°19'0 0.0
2019-Aug-18 10:58N 45°26' E 012°19'0 0.0
2019-Aug-18 10:28N 45°26' E 012°19'0 0.0
2019-Aug-18 09:58N 45°26' E 012°19'0 0.0
2019-Aug-18 09:28N 45°26' E 012°19'0 0.0
2019-Aug-18 08:58N 45°26' E 012°19'0 0.0
2019-Aug-18 08:28N 45°26' E 012°19'0 0.0
2019-Aug-18 07:58N 45°26' E 012°19'0 0.0
2019-Aug-18 07:00N 45°26' E 012°19'0 0.0
2019-Aug-18 06:30N 45°26' E 012°19'0 0.0
2019-Aug-18 06:00N 45°26' E 012°19'0 0.5
2019-Aug-18 05:30N 45°26' E 012°18'2 3.8
2019-Aug-18 05:00N 45°26' E 012°21'2 4.3
2019-Aug-18 04:30N 45°26' E 012°24'4 7.5
2019-Aug-18 04:00N 45°24' E 012°29'612.9
2019-Aug-18 03:31N 45°18' E 012°32'816.9
2019-Aug-18 03:00N 45°12' E 012°41'917.7
2019-Aug-18 02:31N 45°06' E 012°49'918.4
2019-Aug-18 02:01N 44°58' E 012°55'918.6
2019-Aug-18 01:31N 44°49' E 012°60'918.9
2019-Aug-18 01:01N 44°40' E 013°04'918.3
2019-Aug-18 00:30N 44°31' E 013°08'714.4
2019-Aug-18 00:00N 44°25' E 013°11'918.3
2019-Aug-17 23:31N 44°16' E 013°17'918.7
2019-Aug-17 23:00N 44°11' E 013°27'918.5
2019-Aug-17 22:30N 44°05' E 013°38'918.7
2019-Aug-17 22:01N 43°59' E 013°48'918.9
2019-Aug-17 21:30N 43°54' E 013°59'1019.6
2019-Aug-17 21:00N 43°49' E 014°10'1020.5
2019-Aug-17 20:30N 43°42' E 014°21'1120.7
2019-Aug-17 19:58N 43°35' E 014°33'1020.4
2019-Aug-17 19:30N 43°28' E 014°42'1020.3
2019-Aug-17 19:00N 43°21' E 014°52'1120.3
2019-Aug-17 18:28N 43°14' E 015°03'2020.3
2019-Aug-17 17:30N 43°01' E 015°24'55411.1
2019-Aug-15 15:33N 37°14' E 024°48'118.8
2019-Aug-15 15:30N 37°15' E 024°49'918.5
2019-Aug-15 15:00N 37°20' E 024°58'918.4
2019-Aug-15 14:30N 37°27' E 025°06'816.6
2019-Aug-15 14:00N 37°28' E 025°17'2 3.7
2019-Aug-15 13:27N 37°27' E 025°19'0 0.1
2019-Aug-15 13:01N 37°27' E 025°19'0 0.0
2019-Aug-15 12:30N 37°27' E 025°19'0 0.0
2019-Aug-15 12:01N 37°27' E 025°19'0 0.0
2019-Aug-15 11:31N 37°27' E 025°19'0 0.0
2019-Aug-15 11:00N 37°27' E 025°19'0 0.0
2019-Aug-15 10:28N 37°27' E 025°19'0 0.0
2019-Aug-15 10:00N 37°27' E 025°19'0 0.0
2019-Aug-15 09:24N 37°27' E 025°19'0 0.0
2019-Aug-15 09:00N 37°27' E 025°19'0 0.0
2019-Aug-15 08:30N 37°27' E 025°19'0 0.0
2019-Aug-15 07:49N 37°27' E 025°19'0 0.1
2019-Aug-15 07:24N 37°27' E 025°19'0 0.0
2019-Aug-15 07:00N 37°27' E 025°19'0 0.0
2019-Aug-15 06:27N 37°27' E 025°19'0 0.0
2019-Aug-15 06:00N 37°27' E 025°19'0 0.0
2019-Aug-15 05:30N 37°27' E 025°19'0 0.2
2019-Aug-15 05:00N 37°27' E 025°19'0 0.1
2019-Aug-15 04:28N 37°27' E 025°19'0 0.0
2019-Aug-15 04:00N 37°27' E 025°19'1 1.1
2019-Aug-15 03:30N 37°27' E 025°18'3 5.1
2019-Aug-15 03:00N 37°27' E 025°15'4 7.6
2019-Aug-15 02:30N 37°27' E 025°10'611.4
2019-Aug-15 02:00N 37°23' E 025°06'612.6
2019-Aug-15 01:30N 37°18' E 025°02'713.4
2019-Aug-15 01:00N 37°15' E 024°54'87 4.1
2019-Aug-14 03:45N 36°22' E 023°27'25811.7
2019-Aug-13 05:45N 39°38' E 019°54'  
Track history (hours):
 
Tides and Currents Weather Stations Pressure Air Temp Water Temp Dewpoint Dewpoint Depression Visibility Wind Speed Wind Dir Waves Ship Positions

Barbarossa

Last reported at 2019-Aug-22 15:58 UTC. Time now 2019-Aug-24 06:57 UTC.
Position N 37°13' E 024°49'.

Length 294 m; draft 8.1 m.

Type: Ship. MMSI: 247282900.

Date/timePositionNaut miles runAvg speedWind from/ knotsBaromVisibWave heightAir tempDewpointWater temp
2019-Aug-22 15:58N 37°13' E 024°49'918.8
2019-Aug-22 15:30N 37°19' E 024°57'918.9
2019-Aug-22 15:01N 37°26' E 025°05'816.9
2019-Aug-22 14:30N 37°28' E 025°15'3 5.8
2019-Aug-22 13:58N 37°28' E 025°19'0 0.0
2019-Aug-22 13:28N 37°28' E 025°19'0 0.0
2019-Aug-22 12:58N 37°28' E 025°19'0 0.0
2019-Aug-22 12:28N 37°28' E 025°19'0 0.0
2019-Aug-22 11:55N 37°28' E 025°19'0 0.0
2019-Aug-22 11:25N 37°28' E 025°19'0 0.0
2019-Aug-22 10:55N 37°28' E 025°19'0 0.0
2019-Aug-22 10:28N 37°28' E 025°19'0 0.0
2019-Aug-22 09:58N 37°28' E 025°19'0 0.0
2019-Aug-22 09:28N 37°28' E 025°19'0 0.0
2019-Aug-22 08:58N 37°28' E 025°19'0 0.0
2019-Aug-22 08:28N 37°28' E 025°19'0 0.0
2019-Aug-22 07:58N 37°28' E 025°19'0 0.0
2019-Aug-22 07:28N 37°28' E 025°19'0 0.0
2019-Aug-22 06:55N 37°28' E 025°19'0 0.0
2019-Aug-22 06:28N 37°28' E 025°19'0 0.0
2019-Aug-22 05:58N 37°28' E 025°19'0 0.0
2019-Aug-22 05:28N 37°28' E 025°19'0 0.0
2019-Aug-22 04:58N 37°28' E 025°19'0 0.0
2019-Aug-22 04:28N 37°28' E 025°19'0 0.0
2019-Aug-22 03:58N 37°28' E 025°19'0 0.1
2019-Aug-22 03:30N 37°28' E 025°19'1 1.9
2019-Aug-22 03:00N 37°27' E 025°18'4 9.0
2019-Aug-22 02:30N 37°28' E 025°12'510.2
2019-Aug-22 02:00N 37°24' E 025°07'611.1
2019-Aug-22 01:26N 37°18' E 025°05'512.7
2019-Aug-22 01:00N 37°16' E 024°58'612.7
2019-Aug-22 00:30N 37°14' E 024°51'  
2019-Aug-19 17:40N 41°08' E 016°52'14510.4
2019-Aug-19 03:43N 43°06' E 014°58'421.7
2019-Aug-19 03:31N 43°09' E 014°54'1121.6
2019-Aug-19 03:01N 43°16' E 014°43'1121.4
2019-Aug-19 02:31N 43°23' E 014°32'1121.3
2019-Aug-19 02:01N 43°30' E 014°20'1121.5
2019-Aug-19 01:31N 43°38' E 014°11'1121.6
2019-Aug-19 01:01N 43°46' E 014°01'1121.4
2019-Aug-19 00:31N 43°53' E 013°49'1121.2
2019-Aug-19 00:01N 43°59' E 013°37'1121.5
2019-Aug-18 23:31N 44°05' E 013°25'1121.4
2019-Aug-18 23:01N 44°11' E 013°13'1121.3
2019-Aug-18 22:31N 44°21' E 013°08'1121.1
2019-Aug-18 22:01N 44°31' E 013°04'1121.1
2019-Aug-18 21:30N 44°41' E 012°59'1121.1
2019-Aug-18 21:00N 44°51' E 012°53'1121.1
2019-Aug-18 20:30N 45°00' E 012°47'1020.4
2019-Aug-18 20:00N 45°08' E 012°38'917.4
2019-Aug-18 19:30N 45°15' E 012°30'815.2
2019-Aug-18 19:00N 45°23' E 012°29'4 9.0
2019-Aug-18 18:30N 45°26' E 012°24'2 4.3
2019-Aug-18 18:01N 45°26' E 012°21'2 4.1
2019-Aug-18 17:30N 45°26' E 012°18'0 0.5
2019-Aug-18 17:00N 45°26' E 012°19'0 0.0
2019-Aug-18 16:30N 45°26' E 012°19'0 0.0
2019-Aug-18 15:59N 45°26' E 012°19'0 0.0
2019-Aug-18 15:29N 45°26' E 012°19'0 0.0
2019-Aug-18 14:58N 45°26' E 012°19'0 0.0
2019-Aug-18 14:28N 45°26' E 012°19'0 0.0
2019-Aug-18 13:58N 45°26' E 012°19'0 0.0
2019-Aug-18 13:28N 45°26' E 012°19'0 0.0
2019-Aug-18 12:58N 45°26' E 012°19'0 0.0
2019-Aug-18 12:28N 45°26' E 012°19'0 0.0
2019-Aug-18 11:55N 45°26' E 012°19'0 0.0
2019-Aug-18 11:28N 45°26' E 012°19'0 0.0
2019-Aug-18 10:58N 45°26' E 012°19'0 0.0
2019-Aug-18 10:28N 45°26' E 012°19'0 0.0
2019-Aug-18 09:58N 45°26' E 012°19'0 0.0
2019-Aug-18 09:28N 45°26' E 012°19'0 0.0
2019-Aug-18 08:58N 45°26' E 012°19'0 0.0
2019-Aug-18 08:28N 45°26' E 012°19'0 0.0
2019-Aug-18 07:58N 45°26' E 012°19'0 0.0
2019-Aug-18 07:00N 45°26' E 012°19'0 0.0
2019-Aug-18 06:30N 45°26' E 012°19'0 0.0
2019-Aug-18 06:00N 45°26' E 012°19'0 0.5
2019-Aug-18 05:30N 45°26' E 012°18'2 3.8
2019-Aug-18 05:00N 45°26' E 012°21'2 4.3
2019-Aug-18 04:30N 45°26' E 012°24'4 7.5
2019-Aug-18 04:00N 45°24' E 012°29'612.9
2019-Aug-18 03:31N 45°18' E 012°32'816.9
2019-Aug-18 03:00N 45°12' E 012°41'917.7
2019-Aug-18 02:31N 45°06' E 012°49'918.4
2019-Aug-18 02:01N 44°58' E 012°55'918.6
2019-Aug-18 01:31N 44°49' E 012°60'918.9
2019-Aug-18 01:01N 44°40' E 013°04'918.3
2019-Aug-18 00:30N 44°31' E 013°08'714.4
2019-Aug-18 00:00N 44°25' E 013°11'918.3
2019-Aug-17 23:31N 44°16' E 013°17'918.7
2019-Aug-17 23:00N 44°11' E 013°27'918.5
2019-Aug-17 22:30N 44°05' E 013°38'918.7
2019-Aug-17 22:01N 43°59' E 013°48'918.9
2019-Aug-17 21:30N 43°54' E 013°59'1019.6
2019-Aug-17 21:00N 43°49' E 014°10'1020.5
2019-Aug-17 20:30N 43°42' E 014°21'1120.7
2019-Aug-17 19:58N 43°35' E 014°33'1020.4
2019-Aug-17 19:30N 43°28' E 014°42'1020.3
2019-Aug-17 19:00N 43°21' E 014°52'1120.3
2019-Aug-17 18:28N 43°14' E 015°03'2020.3
2019-Aug-17 17:30N 43°01' E 015°24'55411.1
2019-Aug-15 15:33N 37°14' E 024°48'118.8
2019-Aug-15 15:30N 37°15' E 024°49'918.5
2019-Aug-15 15:00N 37°20' E 024°58'918.4
2019-Aug-15 14:30N 37°27' E 025°06'816.6
2019-Aug-15 14:00N 37°28' E 025°17'2 3.7
2019-Aug-15 13:27N 37°27' E 025°19'0 0.1
2019-Aug-15 13:01N 37°27' E 025°19'0 0.0
2019-Aug-15 12:30N 37°27' E 025°19'0 0.0
2019-Aug-15 12:01N 37°27' E 025°19'0 0.0
2019-Aug-15 11:31N 37°27' E 025°19'0 0.0
2019-Aug-15 11:00N 37°27' E 025°19'0 0.0
2019-Aug-15 10:28N 37°27' E 025°19'0 0.0
2019-Aug-15 10:00N 37°27' E 025°19'0 0.0
2019-Aug-15 09:24N 37°27' E 025°19'0 0.0
2019-Aug-15 09:00N 37°27' E 025°19'0 0.0
2019-Aug-15 08:30N 37°27' E 025°19'0 0.0
2019-Aug-15 07:49N 37°27' E 025°19'0 0.1
2019-Aug-15 07:24N 37°27' E 025°19'0 0.0
2019-Aug-15 07:00N 37°27' E 025°19'0 0.0
2019-Aug-15 06:27N 37°27' E 025°19'0 0.0
2019-Aug-15 06:00N 37°27' E 025°19'0 0.0
2019-Aug-15 05:30N 37°27' E 025°19'0 0.2
2019-Aug-15 05:00N 37°27' E 025°19'0 0.1
2019-Aug-15 04:28N 37°27' E 025°19'0 0.0
2019-Aug-15 04:00N 37°27' E 025°19'1 1.1
2019-Aug-15 03:30N 37°27' E 025°18'3 5.1
2019-Aug-15 03:00N 37°27' E 025°15'4 7.6
2019-Aug-15 02:30N 37°27' E 025°10'611.4
2019-Aug-15 02:00N 37°23' E 025°06'612.6
2019-Aug-15 01:30N 37°18' E 025°02'713.4
2019-Aug-15 01:00N 37°15' E 024°54'87 4.1
2019-Aug-14 03:45N 36°22' E 023°27'25811.7
2019-Aug-13 05:45N 39°38' E 019°54'  

Dump ship's entire track history